Time;durP1;ratioP1;P1;durP2;ratioP2;P2;SDS_P1;SDS_P2;PMS_P1;PMS_P2;Temp;Humidity;BMP_temperature;BMP_pressure;BME280_temperature;BME280_humidity;BME280_pressure;Samples;Min_cycle;Max_cycle;Signal;HPM_P1;HPM_P2
2022/04/26 03:36:53;;;;;;;7.63;5.65;;;;;;;7.38;77.28;101493.06;5097896;28;20166;-83
2022/04/26 03:39:21;;;;;;;9.57;5.25;;;;;;;7.36;77.13;101492.28;5085193;28;20033;-83
2022/04/26 03:41:47;;;;;;;10.07;5.63;;;;;;;7.36;77.77;101497.56;5077738;28;20041;-82
2022/04/26 03:44:12;;;;;;;9.23;5.57;;;;;;;7.34;77.26;101495.00;5077179;28;20093;-83
2022/04/26 03:46:38;;;;;;;9.45;5.53;;;;;;;7.36;77.49;101497.56;5078477;28;20060;-83
2022/04/26 03:49:03;;;;;;;7.47;5.55;;;;;;;7.40;78.07;101505.25;5060784;28;20029;-83
2022/04/26 03:51:28;;;;;;;8.95;5.70;;;;;;;7.38;77.84;101503.66;5089500;28;20036;-83
2022/04/26 03:53:57;;;;;;;8.43;5.60;;;;;;;7.37;77.92;101507.22;5098005;28;20038;-83
2022/04/26 03:56:22;;;;;;;9.00;5.53;;;;;;;7.38;77.79;101498.34;5096329;28;20101;-83
2022/04/26 03:58:47;;;;;;;6.45;5.60;;;;;;;7.37;78.31;101504.56;5091466;28;20064;-83
2022/04/26 04:01:13;;;;;;;10.38;6.53;;;;;;;7.35;78.26;101504.66;5076160;28;20139;-83
2022/04/26 04:03:40;;;;;;;8.90;5.57;;;;;;;7.40;78.02;101507.91;5080178;28;20036;-83
2022/04/26 04:06:06;;;;;;;11.55;6.03;;;;;;;7.35;78.82;101506.44;5096213;28;20039;-83
2022/04/26 04:08:34;;;;;;;10.90;5.97;;;;;;;7.35;78.47;101514.38;5097259;28;20025;-83
2022/04/26 04:11:00;;;;;;;9.43;5.85;;;;;;;7.36;79.13;101514.28;5097021;28;20035;-83
2022/04/26 04:13:25;;;;;;;6.57;5.38;;;;;;;7.35;78.50;101517.84;5096893;28;20041;-83
2022/04/26 04:15:51;;;;;;;10.77;6.60;;;;;;;7.38;79.29;101530.91;5096059;28;20059;-83
2022/04/26 04:21:00;;;;;;;9.38;5.85;;;;;;;7.33;78.72;101524.16;5096786;28;20086;-82
2022/04/26 04:23:26;;;;;;;8.52;5.75;;;;;;;7.34;79.08;101528.50;5096576;28;20028;-83
2022/04/26 04:25:51;;;;;;;12.13;6.43;;;;;;;7.31;79.42;101529.53;5096047;28;20029;-83
2022/04/26 04:28:16;;;;;;;10.48;6.38;;;;;;;7.34;79.03;101534.63;5096495;28;20102;-83
2022/04/26 04:30:42;;;;;;;8.32;6.13;;;;;;;7.29;79.39;101535.81;5096557;28;20572;-82
2022/04/26 04:33:08;;;;;;;10.40;6.53;;;;;;;7.29;79.40;101538.47;5096235;28;20043;-83
2022/04/26 04:35:33;;;;;;;10.80;6.45;;;;;;;7.29;79.69;101539.31;5096960;28;20036;-83
2022/04/26 04:37:58;;;;;;;11.13;6.43;;;;;;;7.29;79.81;101539.31;5097297;28;20039;-83
2022/04/26 04:40:24;;;;;;;10.60;6.53;;;;;;;7.30;79.86;101548.09;5088450;28;20041;-83
2022/04/26 04:42:49;;;;;;;11.32;6.50;;;;;;;7.28;79.92;101545.53;5077134;28;20021;-83
2022/04/26 04:45:14;;;;;;;9.05;5.97;;;;;;;7.27;80.22;101545.63;5077262;28;20036;-84
2022/04/26 04:47:40;;;;;;;8.13;6.22;;;;;;;7.27;79.89;101553.53;5091543;28;20024;-84
2022/04/26 04:50:06;;;;;;;10.35;6.55;;;;;;;7.31;79.63;101557.72;5097200;28;20055;-84
2022/04/26 04:52:34;;;;;;;9.30;6.63;;;;;;;7.28;79.87;101556.13;5097081;28;20060;-85
2022/04/26 04:54:59;;;;;;;13.10;6.97;;;;;;;7.32;79.96;101564.72;5098097;28;20089;-85
2022/04/26 04:57:25;;;;;;;12.88;7.00;;;;;;;7.32;80.19;101560.28;5098238;28;20024;-84
2022/04/26 04:59:50;;;;;;;8.27;6.28;;;;;;;7.34;80.17;101566.34;5098498;28;20059;-84
2022/04/26 05:02:16;;;;;;;10.90;6.20;;;;;;;7.32;79.91;101568.22;5098181;28;20036;-84
2022/04/26 05:04:42;;;;;;;11.23;6.68;;;;;;;7.29;80.28;101571.00;5088176;28;20036;-84
2022/04/26 05:07:08;;;;;;;8.55;6.03;;;;;;;7.35;79.89;101581.28;5077795;28;20076;-85
2022/04/26 05:09:34;;;;;;;9.20;6.47;;;;;;;7.32;80.31;101577.94;5078188;28;20016;-84
2022/04/26 05:11:59;;;;;;;7.68;6.18;;;;;;;7.35;80.47;101581.28;5078163;28;20051;-84
2022/04/26 05:14:25;;;;;;;12.25;7.10;;;;;;;7.35;80.83;101589.22;5078076;28;20033;-84
2022/04/26 05:16:50;;;;;;;10.00;6.13;;;;;;;7.38;80.25;101598.78;5059127;28;20049;-84
2022/04/26 05:19:16;;;;;;;11.93;6.55;;;;;;;7.34;80.74;101586.63;5076790;28;20036;-84
2022/04/26 05:21:42;;;;;;;9.02;6.45;;;;;;;7.37;80.66;101597.06;5080744;28;20021;-84
2022/04/26 05:26:50;;;;;;;10.43;6.05;;;;;;;7.41;80.63;101595.94;5110705;23;20117;-63
2022/04/26 05:29:16;;;;;;;11.27;7.05;;;;;;;7.44;80.28;101597.59;5092737;28;20040;-63
2022/04/26 05:31:41;;;;;;;11.80;6.47;;;;;;;7.45;80.33;101597.53;5090435;28;20032;-62
2022/04/26 05:34:06;;;;;;;9.68;6.80;;;;;;;7.47;80.62;101610.66;5072346;28;20036;-63
2022/04/26 05:36:32;;;;;;;11.73;7.15;;;;;;;7.48;80.48;101615.88;5083894;28;20064;-63
2022/04/26 05:38:59;;;;;;;10.30;6.65;;;;;;;7.49;80.46;101614.06;5090243;28;20448;-63
2022/04/26 05:41:25;;;;;;;10.50;6.50;;;;;;;7.48;80.45;101607.94;5090569;28;20043;-63
2022/04/26 05:43:50;;;;;;;7.80;6.85;;;;;;;7.51;80.97;101607.78;5090131;28;20032;-63
2022/04/26 05:46:15;;;;;;;9.45;7.05;;;;;;;7.53;80.74;101610.34;5090354;28;20557;-63
2022/04/26 05:48:40;;;;;;;10.15;6.90;;;;;;;7.55;80.91;101616.41;5090350;28;20446;-63
2022/04/26 05:51:06;;;;;;;12.00;7.35;;;;;;;7.55;80.84;101613.78;5090353;28;20043;-64
2022/04/26 05:53:31;;;;;;;9.38;7.15;;;;;;;7.56;80.36;101618.09;5090165;28;20109;-63
2022/04/26 05:55:56;;;;;;;9.80;6.60;;;;;;;7.58;81.06;101617.09;5090093;28;20036;-63
2022/04/26 05:58:22;;;;;;;11.73;7.38;;;;;;;7.62;80.71;101619.59;5090437;28;20055;-63
2022/04/26 06:00:47;;;;;;;8.25;6.82;;;;;;;7.63;80.78;101621.28;5107862;28;20105;-63
2022/04/26 06:03:12;;;;;;;12.45;7.30;;;;;;;7.67;80.66;101617.56;5110393;28;20040;-63
2022/04/26 06:05:38;;;;;;;14.18;7.18;;;;;;;7.71;80.63;101622.63;5112211;28;20086;-63
2022/04/26 06:08:03;;;;;;;10.55;7.22;;;;;;;7.75;80.50;101626.81;5111990;28;20085;-63
2022/04/26 06:10:29;;;;;;;12.10;7.53;;;;;;;7.76;80.65;101628.53;5094064;28;20040;-63
2022/04/26 06:12:54;;;;;;;9.48;7.15;;;;;;;7.81;80.67;101630.06;5103734;28;20071;-62
2022/04/26 06:15:21;;;;;;;12.48;7.82;;;;;;;7.82;80.40;101631.78;5089805;28;20040;-64
2022/04/26 06:17:46;;;;;;;13.88;7.50;;;;;;;7.82;80.81;101635.25;5055222;28;20043;-64
2022/04/26 06:20:12;;;;;;;14.52;8.07;;;;;;;7.88;81.17;101639.41;5089785;28;20040;-63
2022/04/26 06:22:38;;;;;;;12.63;8.13;;;;;;;7.91;80.20;101639.22;5095363;28;20039;-64
2022/04/26 06:25:04;;;;;;;11.52;7.90;;;;;;;7.96;80.46;101642.50;5109856;28;20401;-63
2022/04/26 06:27:29;;;;;;;14.25;8.30;;;;;;;8.01;80.48;101644.88;5109731;28;20047;-63
2022/04/26 06:29:55;;;;;;;12.25;8.50;;;;;;;8.05;80.11;101634.06;5107065;28;20036;-63
2022/04/26 06:32:20;;;;;;;14.82;7.80;;;;;;;8.10;80.31;101650.53;5109764;28;20434;-64
2022/04/26 06:34:45;;;;;;;12.10;8.30;;;;;;;8.13;79.36;101646.88;5113426;28;20043;-64
2022/04/26 06:37:13;;;;;;;12.38;8.10;;;;;;;8.13;79.45;101662.75;5107788;28;20042;-64
2022/04/26 06:39:38;;;;;;;12.20;8.38;;;;;;;8.16;79.39;101662.59;5113666;28;20078;-64
2022/04/26 06:42:04;;;;;;;14.82;8.38;;;;;;;8.21;79.80;101657.03;5108965;28;20068;-64
2022/04/26 06:44:29;;;;;;;13.38;8.75;;;;;;;8.26;79.80;101660.28;5092731;28;20036;-64
2022/04/26 06:46:54;;;;;;;14.70;8.90;;;;;;;8.31;79.42;101659.13;5092861;28;20468;-64
2022/04/26 06:49:19;;;;;;;13.18;8.88;;;;;;;8.37;78.80;101662.38;5092787;28;20032;-64
2022/04/26 06:51:45;;;;;;;13.73;9.48;;;;;;;8.39;79.51;101661.34;5092567;28;20043;-64
2022/04/26 06:54:11;;;;;;;12.05;9.02;;;;;;;8.44;78.97;101669.94;5075006;28;20044;-64
2022/04/26 06:56:36;;;;;;;14.23;9.88;;;;;;;8.50;79.00;101668.75;5092256;28;20040;-63
2022/04/26 06:59:02;;;;;;;17.38;10.38;;;;;;;8.54;78.84;101664.97;5092833;28;20032;-63
2022/04/26 07:01:28;;;;;;;13.40;9.57;;;;;;;8.63;78.92;101666.28;5092390;28;20040;-63
2022/04/26 07:03:53;;;;;;;13.95;9.48;;;;;;;8.68;78.13;101672.19;5092626;28;20047;-62
2022/04/26 07:06:18;;;;;;;15.30;9.93;;;;;;;8.75;78.16;101665.59;5092545;28;20024;-63
2022/04/26 07:08:43;;;;;;;12.45;9.88;;;;;;;8.86;77.97;101670.31;5112787;28;20050;-63
2022/04/26 07:11:09;;;;;;;14.88;10.15;;;;;;;8.98;77.70;101669.59;5092461;28;20036;-63
2022/04/26 07:13:34;;;;;;;15.15;9.63;;;;;;;9.18;77.41;101670.28;5092241;28;20046;-63
2022/04/26 07:16:00;;;;;;;16.73;9.25;;;;;;;9.39;76.59;101673.44;5092340;28;20028;-63
2022/04/26 07:18:26;;;;;;;13.07;9.43;;;;;;;9.57;75.29;101676.84;5092044;28;20362;-63
2022/04/26 07:20:52;;;;;;;12.65;9.13;;;;;;;9.67;74.81;101678.00;5092274;28;20032;-63
2022/04/26 07:23:18;;;;;;;12.98;9.48;;;;;;;9.88;74.74;101672.34;5089122;28;20044;-63
2022/04/26 07:25:43;;;;;;;14.40;8.93;;;;;;;10.04;73.25;101680.22;5091937;28;20038;-64
2022/04/26 07:28:09;;;;;;;15.07;8.88;;;;;;;10.27;72.83;101674.34;5091945;28;20317;-64
2022/04/26 07:30:34;;;;;;;12.27;8.40;;;;;;;10.48;71.41;101680.16;5093935;28;20580;-63
2022/04/26 07:35:53;;;;;;;11.32;8.00;;;;;;;10.83;69.64;101685.03;5091551;28;20081;-64
2022/04/26 07:38:18;;;;;;;11.20;7.90;;;;;;;10.87;68.81;101686.53;5107383;28;20031;-65
2022/04/26 07:40:43;;;;;;;9.82;7.82;;;;;;;10.91;68.19;101690.72;5091952;28;20038;-64
2022/04/26 07:43:09;;;;;;;13.52;7.53;;;;;;;10.99;68.98;101692.03;5091818;28;20044;-64
2022/04/26 07:45:39;;;;;;;13.40;7.50;;;;;;;11.02;69.05;101684.69;5091679;28;20044;-63
2022/04/26 07:48:05;;;;;;;12.30;7.65;;;;;;;11.06;67.97;101690.69;5091566;28;20328;-64
2022/04/26 07:50:32;;;;;;;12.27;7.60;;;;;;;11.17;67.90;101700.59;5091625;28;20028;-64
2022/04/26 07:52:58;;;;;;;14.90;7.55;;;;;;;11.13;66.37;101701.78;5093082;28;20031;-64
2022/04/26 07:55:24;;;;;;;12.18;8.05;;;;;;;11.18;66.89;101705.00;5090824;28;20028;-65
2022/04/26 07:57:49;;;;;;;10.88;7.43;;;;;;;11.24;66.55;101708.09;5091258;28;20050;-64
2022/04/26 08:00:16;;;;;;;13.30;6.85;;;;;;;11.25;65.62;101709.78;5091410;28;20031;-65
2022/04/26 08:02:42;;;;;;;10.00;7.13;;;;;;;11.33;66.44;101719.94;5090414;28;20158;-63
2022/04/26 08:05:08;;;;;;;12.98;7.30;;;;;;;11.39;65.50;101718.66;5091063;28;20047;-64
2022/04/26 08:07:39;;;;;;;12.52;6.80;;;;;;;11.45;65.25;101712.94;5101677;28;20043;-64
2022/04/26 08:10:08;;;;;;;10.88;7.13;;;;;;;11.45;63.71;101724.44;5107981;28;20042;-63
2022/04/26 08:12:33;;;;;;;;;;;;;;;11.58;66.72;101729.78;5091377;28;20047;-63
2022/04/26 08:14:59;;;;;;;11.47;7.50;;;;;;;11.52;66.25;101726.69;5091309;28;19912;-63
2022/04/26 08:17:24;;;;;;;14.50;7.40;;;;;;;11.57;64.95;101735.22;5091587;28;20367;-63
2022/04/26 08:19:49;;;;;;;10.17;7.17;;;;;;;11.62;64.80;101733.97;5094490;28;20035;-64
2022/04/26 08:22:15;;;;;;;12.20;6.22;;;;;;;11.68;63.71;101742.50;5113176;28;20269;-64
2022/04/26 08:27:25;;;;;;;9.15;6.45;;;;;;;11.79;64.10;101738.16;5090650;28;20253;-64
2022/04/26 08:29:51;;;;;;;14.45;6.43;;;;;;;11.89;63.88;101745.50;5108998;28;20032;-64
2022/04/26 08:32:16;;;;;;;11.45;6.68;;;;;;;11.92;63.11;101743.50;5113273;28;20039;-64
2022/04/26 08:34:42;;;;;;;9.95;6.05;;;;;;;12.01;63.55;101742.06;5109433;28;20036;-64
2022/04/26 08:37:08;;;;;;;11.90;6.45;;;;;;;12.18;62.76;101754.22;5112769;28;20039;-63
2022/04/26 08:39:34;;;;;;;11.63;5.22;;;;;;;12.22;61.24;101753.03;5091246;28;20035;-65
2022/04/26 08:42:00;;;;;;;11.38;6.18;;;;;;;12.30;61.33;101758.66;5087996;28;20036;-65
2022/04/26 08:44:27;;;;;;;12.27;5.60;;;;;;;12.39;60.77;101751.88;5069803;28;20036;-66
2022/04/26 08:52:24;;;;;;;7.32;5.32;;;;;;;12.78;60.30;101758.84;5092694;28;20065;-65
2022/04/26 08:54:49;;;;;;;10.20;5.35;;;;;;;13.00;60.07;101753.78;5090431;28;20038;-65
2022/04/26 08:57:15;;;;;;;10.18;5.38;;;;;;;13.18;59.18;101756.94;5091616;28;20028;-65
2022/04/26 08:59:47;;;;;;;8.27;5.00;;;;;;;13.35;57.34;101755.72;5092719;28;20505;-66
2022/04/26 09:02:18;;;;;;;8.55;4.95;;;;;;;13.51;56.77;101753.63;5093522;28;20032;-65
2022/04/26 09:04:44;;;;;;;15.30;5.57;;;;;;;13.72;56.22;101755.66;5089759;28;20028;-66
2022/04/26 09:07:11;;;;;;;9.27;4.68;;;;;;;13.94;55.23;101762.88;5090304;28;20097;-65
2022/04/26 09:09:38;;;;;;;10.50;4.97;;;;;;;14.24;56.13;101755.19;5098836;28;20072;-65
2022/04/26 09:12:09;;;;;;;12.52;5.07;;;;;;;14.42;53.55;101754.69;5092474;28;20124;-65
2022/04/26 09:14:48;;;;;;;9.10;4.95;;;;;;;14.65;54.36;101760.09;5088465;28;20094;-66
2022/04/26 09:17:17;;;;;;;10.02;5.00;;;;;;;14.86;52.28;101760.22;5088043;28;20118;-65
2022/04/26 09:19:46;;;;;;;9.17;4.20;;;;;;;15.09;50.72;101758.38;5087826;28;21065;-66
2022/04/26 09:22:20;;;;;;;5.95;3.40;;;;;;;15.18;51.21;101758.44;5092653;28;20344;-66
2022/04/26 09:25:06;;;;;;;9.93;4.57;;;;;;;15.45;52.64;101761.66;5087706;28;20036;-66
2022/04/26 09:27:41;;;;;;;6.70;4.15;;;;;;;15.70;50.58;101761.34;5088732;28;20055;-65
2022/04/26 09:30:11;;;;;;;7.68;3.75;;;;;;;15.87;48.99;101767.97;5088550;28;20036;-65
2022/04/26 09:32:45;;;;;;;9.30;3.80;;;;;;;15.95;48.41;101767.31;5090599;28;20375;-63
2022/04/26 09:35:23;;;;;;;8.23;3.95;;;;;;;16.19;48.06;101767.06;5100905;28;20036;-63
2022/04/26 09:37:49;;;;;;;5.65;3.50;;;;;;;16.38;46.80;101766.31;5088895;28;20067;-63
2022/04/26 09:40:15;;;;;;;6.85;3.40;;;;;;;16.57;45.11;101767.38;5088877;28;20074;-63
2022/04/26 09:42:40;;;;;;;9.13;3.60;;;;;;;16.64;44.02;101773.94;5089502;28;20059;-63
2022/04/26 09:45:07;;;;;;;5.33;3.67;;;;;;;16.90;45.07;101776.16;5089170;28;20086;-63
2022/04/26 09:47:41;;;;;;;7.85;3.83;;;;;;;17.19;45.31;101773.56;5089019;28;20763;-63
2022/04/26 09:50:09;;;;;;;5.93;3.28;;;;;;;17.45;43.63;101787.31;5089022;28;20040;-63
2022/04/26 09:52:35;;;;;;;6.93;3.60;;;;;;;17.71;43.25;101778.72;5089057;28;20040;-63
2022/04/26 09:55:01;;;;;;;8.55;4.38;;;;;;;17.87;42.93;101787.09;5088990;28;20447;-63
2022/04/26 09:57:31;;;;;;;10.00;3.75;;;;;;;17.88;43.75;101787.94;5088832;28;20093;-63
2022/04/26 09:59:58;;;;;;;7.55;3.67;;;;;;;17.82;42.94;101793.81;5088902;28;20075;-63
2022/04/26 10:02:31;;;;;;;8.15;3.67;;;;;;;17.76;43.33;101796.09;5089331;28;20040;-63
2022/04/26 10:05:01;;;;;;;9.18;3.80;;;;;;;18.06;43.17;101793.44;5092885;28;20107;-64
2022/04/26 10:07:31;;;;;;;10.00;3.50;;;;;;;18.42;42.67;101801.72;5093182;28;20059;-63
2022/04/26 10:09:58;;;;;;;8.32;3.60;;;;;;;18.44;40.52;101799.72;5092446;28;20048;-63
2022/04/26 10:12:24;;;;;;;7.20;3.63;;;;;;;18.66;41.98;101802.03;5092603;28;20036;-65
2022/04/26 10:14:50;;;;;;;6.45;3.65;;;;;;;18.62;41.19;101806.03;5092547;28;20101;-65
2022/04/26 10:17:21;;;;;;;8.75;3.92;;;;;;;18.74;42.20;101812.09;5092156;28;20500;-64
2022/04/26 10:19:47;;;;;;;6.28;3.63;;;;;;;18.55;39.71;101813.00;5092320;28;20412;-64
2022/04/26 10:22:17;;;;;;;7.20;3.53;;;;;;;18.72;39.54;101814.09;5092346;28;20505;-64
2022/04/26 10:25:05;;;;;;;;;;;;;;;19.03;43.74;101812.00;5092826;28;20085;-64
2022/04/26 10:27:30;;;;;;;6.63;3.67;;;;;;;18.52;39.27;101816.00;5091974;28;19961;-64
2022/04/26 10:29:55;;;;;;;11.93;3.85;;;;;;;18.41;40.37;101817.00;5092248;28;20274;-64
2022/04/26 10:32:29;;;;;;;4.75;3.33;;;;;;;18.27;41.07;101812.94;5096255;28;20047;-65
2022/04/26 10:34:55;;;;;;;5.10;3.72;;;;;;;18.34;39.11;101815.06;5090701;28;20071;-65
2022/04/26 10:37:20;;;;;;;7.38;3.50;;;;;;;18.51;40.11;101814.28;5091022;28;20182;-64
2022/04/26 10:39:57;;;;;;;7.50;3.55;;;;;;;18.49;38.06;101819.81;5113406;28;20400;-63
2022/04/26 10:42:28;;;;;;;6.35;3.35;;;;;;;18.55;39.26;101822.91;5090536;28;20113;-63
2022/04/26 10:44:58;;;;;;;8.32;3.47;;;;;;;18.75;38.50;101819.19;5106021;28;20177;-64
2022/04/26 10:47:26;;;;;;;7.40;3.50;;;;;;;18.67;36.60;101825.28;5112810;28;20486;-64
2022/04/26 10:49:52;;;;;;;5.55;3.42;;;;;;;18.46;37.33;101827.31;5109039;28;20039;-64
2022/04/26 10:52:18;;;;;;;6.50;3.00;;;;;;;18.54;37.17;101824.75;5112926;28;20043;-64
2022/04/26 10:54:58;;;;;;;6.90;3.80;;;;;;;18.28;37.07;101827.22;5107142;28;20040;-64
2022/04/26 10:57:29;;;;;;;6.60;3.45;;;;;;;18.07;37.06;101825.56;5092941;28;20040;-64
2022/04/26 11:00:00;;;;;;;5.25;3.60;;;;;;;17.96;37.95;101833.75;5092533;28;20044;-64
2022/04/26 11:02:35;;;;;;;5.47;3.45;;;;;;;17.65;37.49;101827.63;5092620;28;20398;-64
2022/04/26 11:05:12;;;;;;;6.00;3.30;;;;;;;17.87;39.07;101834.59;5102688;28;20036;-64
2022/04/26 11:07:40;;;;;;;5.80;3.20;;;;;;;18.10;37.68;101827.97;5112909;28;20071;-64
2022/04/26 11:10:07;;;;;;;5.03;3.40;;;;;;;18.19;36.71;101828.09;5112507;28;20485;-63
2022/04/26 11:12:35;;;;;;;4.65;3.38;;;;;;;18.47;36.97;101823.66;5112481;28;20075;-64
2022/04/26 11:15:10;;;;;;;5.10;3.47;;;;;;;18.59;37.08;101822.47;5092726;28;20028;-64
2022/04/26 11:17:36;;;;;;;5.25;3.45;;;;;;;18.45;36.97;101823.78;5093983;28;20054;-64
2022/04/26 11:20:05;;;;;;;5.57;3.40;;;;;;;18.74;38.96;101822.00;5090748;28;20032;-64
2022/04/26 11:22:31;;;;;;;5.20;3.40;;;;;;;18.97;37.81;101822.53;5078113;28;20033;-64
2022/04/26 11:28:06;;;;;;;5.97;3.78;;;;;;;19.28;36.67;101823.03;5093381;28;20127;-65
2022/04/26 11:30:45;;;;;;;5.93;4.00;;;;;;;19.54;38.22;101822.31;5090975;28;20028;-64
2022/04/26 11:33:20;;;;;;;5.43;3.90;;;;;;;19.81;37.37;101815.19;5091602;28;20126;-64
2022/04/26 11:35:54;;;;;;;7.53;4.10;;;;;;;19.90;35.28;101822.34;5091848;28;20028;-64
2022/04/26 11:38:20;;;;;;;3.58;3.28;;;;;;;19.81;33.75;101823.28;5073691;28;20384;-64
2022/04/26 11:40:50;;;;;;;5.60;3.67;;;;;;;19.64;33.01;101823.09;5091795;28;20037;-64
2022/04/26 11:43:18;;;;;;;8.32;4.13;;;;;;;19.72;35.35;101825.03;5091965;28;20425;-64
2022/04/26 11:45:46;;;;;;;5.40;3.60;;;;;;;19.80;35.12;101832.38;5073666;28;20047;-64
2022/04/26 11:48:17;;;;;;;6.03;3.75;;;;;;;19.82;33.99;101830.34;5090168;28;20468;-65
2022/04/26 11:50:44;;;;;;;8.07;4.95;;;;;;;19.90;34.59;101834.00;5096699;27;20039;-64
2022/04/26 11:53:12;;;;;;;6.80;4.20;;;;;;;19.76;34.92;101838.06;5117002;27;20123;-64
2022/04/26 11:55:42;;;;;;;6.40;4.20;;;;;;;20.01;35.00;101834.75;5109744;28;20027;-63
2022/04/26 11:58:14;;;;;;;4.55;3.85;;;;;;;19.86;34.23;101839.84;5111833;28;20032;-65
2022/04/26 12:01:03;;;;;;;6.43;4.20;;;;;;;19.93;35.91;101843.59;5093521;28;20553;-66
2022/04/26 12:03:43;;;;;;;7.82;3.90;;;;;;;19.91;35.07;101846.44;5091195;28;20466;-66
2022/04/26 12:06:10;;;;;;;6.60;3.47;;;;;;;19.93;33.71;101846.31;5073169;28;20039;-64
2022/04/26 12:08:44;;;;;;;4.22;3.40;;;;;;;20.11;35.09;101844.44;5091376;28;20074;-63
2022/04/26 12:11:20;;;;;;;5.88;3.58;;;;;;;20.33;35.13;101842.25;5091262;28;20063;-64
2022/04/26 12:13:57;;;;;;;7.35;4.05;;;;;;;20.29;33.78;101840.88;5094823;28;20085;-64
2022/04/26 12:16:23;;;;;;;4.38;3.85;;;;;;;20.23;33.88;101853.13;5105160;28;20066;-64
2022/04/26 12:18:53;;;;;;;6.95;4.00;;;;;;;20.24;32.74;101844.03;5110320;28;20576;-65
2022/04/26 12:21:18;;;;;;;6.57;3.72;;;;;;;20.35;34.11;101842.97;5110730;28;20043;-64
2022/04/26 12:23:44;;;;;;;4.90;3.60;;;;;;;20.23;31.71;101841.50;5111869;28;20039;-63
2022/04/26 12:26:09;;;;;;;6.40;3.80;;;;;;;20.22;31.64;101834.44;5101645;28;20073;-64
2022/04/26 12:28:49;;;;;;;5.00;3.42;;;;;;;20.12;32.76;101835.34;5091240;28;20293;-64
2022/04/26 12:31:22;;;;;;;5.22;3.47;;;;;;;19.85;33.63;101841.69;5090719;28;20032;-64
2022/04/26 12:33:52;;;;;;;4.57;3.05;;;;;;;19.75;31.81;101847.16;5091405;28;20055;-63
2022/04/26 12:36:18;;;;;;;4.57;3.20;;;;;;;19.68;33.03;101842.50;5090726;28;20043;-64
2022/04/26 12:38:47;;;;;;;7.53;3.13;;;;;;;19.63;32.41;101850.19;5090914;28;20035;-64
2022/04/26 12:41:13;;;;;;;4.80;3.00;;;;;;;19.76;32.28;101846.16;5090736;28;20115;-64
2022/04/26 12:43:39;;;;;;;5.53;3.38;;;;;;;19.84;31.56;101848.09;5090654;28;20489;-64
2022/04/26 12:46:06;;;;;;;4.47;3.47;;;;;;;19.83;31.23;101842.84;5090457;28;20074;-63
2022/04/26 12:51:25;;;;;;;6.18;3.22;;;;;;;19.94;32.49;101838.06;5084495;28;20047;-63
2022/04/26 12:53:51;;;;;;;5.57;3.65;;;;;;;19.84;32.44;101844.56;5109974;28;20031;-64
2022/04/26 12:56:18;;;;;;;5.07;3.25;;;;;;;19.67;32.71;101838.97;5090303;28;20035;-64
2022/04/26 12:58:46;;;;;;;5.80;3.53;;;;;;;19.73;34.08;101840.19;5091457;28;20363;-64
2022/04/26 13:01:12;;;;;;;4.00;3.60;;;;;;;19.68;33.98;101832.56;5090427;28;20040;-63
2022/04/26 13:03:38;;;;;;;7.13;3.95;;;;;;;19.53;33.16;101840.31;5090343;28;20693;-63
2022/04/26 13:06:12;;;;;;;5.05;3.58;;;;;;;19.45;34.54;101840.25;5090157;28;20055;-63
2022/04/26 13:08:39;;;;;;;6.82;4.03;;;;;;;19.24;34.35;101848.59;5090249;28;20043;-63
2022/04/26 13:11:05;;;;;;;5.15;3.80;;;;;;;19.18;35.00;101833.88;5089978;28;20393;-63
2022/04/26 13:13:33;;;;;;;6.78;3.70;;;;;;;19.23;36.45;101842.38;5097032;28;20074;-63
2022/04/26 13:15:58;;;;;;;5.85;3.40;;;;;;;19.09;34.38;101837.47;5089906;28;20059;-63
2022/04/26 13:18:24;;;;;;;6.78;4.22;;;;;;;18.83;33.88;101843.50;5090076;28;20149;-63
2022/04/26 13:20:50;;;;;;;5.82;3.70;;;;;;;18.77;36.03;101843.22;5089904;28;20043;-63
2022/04/26 13:23:16;;;;;;;6.85;4.22;;;;;;;18.74;36.84;101843.53;5089012;28;20044;-63
2022/04/26 13:25:43;;;;;;;6.00;3.88;;;;;;;18.70;35.75;101845.66;5089649;28;20075;-63
2022/04/26 13:28:09;;;;;;;9.20;4.30;;;;;;;18.52;35.40;101844.72;5089922;28;20047;-63
2022/04/26 13:30:35;;;;;;;5.05;3.60;;;;;;;18.47;35.81;101850.56;5089839;28;20039;-61
2022/04/26 13:33:01;;;;;;;10.05;4.50;;;;;;;18.18;35.90;101842.53;5089861;28;20392;-62
2022/04/26 13:35:27;;;;;;;7.20;3.97;;;;;;;18.17;36.34;101841.69;5089753;28;20032;-62
2022/04/26 13:37:54;;;;;;;6.93;3.70;;;;;;;18.03;37.13;101848.31;5092806;28;20075;-62
2022/04/26 13:40:21;;;;;;;6.60;3.50;;;;;;;18.04;37.72;101851.88;5113066;28;20130;-63
2022/04/26 13:42:47;;;;;;;10.40;3.78;;;;;;;18.13;37.97;101853.69;5113081;28;20031;-62
2022/04/26 13:45:13;;;;;;;6.07;3.90;;;;;;;18.17;37.02;101855.13;5109438;28;20362;-62
2022/04/26 13:47:39;;;;;;;5.90;3.70;;;;;;;18.17;37.14;101854.25;5112081;28;20071;-63
2022/04/26 13:50:06;;;;;;;6.10;3.70;;;;;;;18.19;37.93;101846.91;5093103;28;20507;-62
2022/04/26 13:52:31;;;;;;;4.55;3.83;;;;;;;18.03;36.66;101860.91;5095324;28;20078;-63
2022/04/26 13:54:56;;;;;;;4.57;3.53;;;;;;;17.91;36.71;101862.91;5092499;28;20056;-62
2022/04/26 13:57:22;;;;;;;6.13;3.57;;;;;;;17.87;37.08;101856.09;5074236;28;20389;-62
2022/04/26 13:59:47;;;;;;;4.50;3.50;;;;;;;17.80;37.02;101863.00;5094835;28;20505;-63
2022/04/26 14:02:13;;;;;;;5.35;3.67;;;;;;;17.70;35.88;101855.78;5102703;28;20286;-62
2022/04/26 14:04:38;;;;;;;4.13;3.30;;;;;;;17.68;36.32;101852.38;5110152;28;20500;-62
2022/04/26 14:07:04;;;;;;;4.72;3.53;;;;;;;17.66;37.13;101857.03;5110109;28;20049;-63
2022/04/26 14:09:30;;;;;;;6.60;3.30;;;;;;;17.62;37.00;101855.63;5096024;28;20047;-62
2022/04/26 14:11:55;;;;;;;6.75;4.20;;;;;;;17.68;37.78;101855.06;5112556;28;20456;-62
2022/04/26 14:22:34;;;;;;;6.10;3.60;;;;;;;17.49;35.21;101863.94;5114092;28;20046;-62
2022/04/26 14:25:00;;;;;;;4.63;2.83;;;;;;;17.37;35.39;101863.22;5093705;28;20032;-62
2022/04/26 14:27:27;;;;;;;4.35;3.05;;;;;;;17.26;36.46;101863.31;5093183;28;20440;-63
2022/04/26 14:29:52;;;;;;;3.90;3.00;;;;;;;17.26;36.39;101857.94;5093128;28;20040;-63
2022/04/26 14:32:17;;;;;;;7.90;3.22;;;;;;;17.29;36.78;101860.38;5074900;28;20401;-63
2022/04/26 14:34:43;;;;;;;4.03;3.10;;;;;;;17.30;36.36;101858.50;5106536;28;20118;-63
2022/04/26 14:37:09;;;;;;;6.13;3.22;;;;;;;17.31;37.53;101857.53;5113284;28;20289;-63
2022/04/26 14:39:36;;;;;;;6.88;2.80;;;;;;;17.34;37.00;101854.59;5104396;28;20043;-62
2022/04/26 14:42:02;;;;;;;10.38;2.90;;;;;;;17.28;37.51;101869.38;5092837;28;20024;-62
2022/04/26 14:44:28;;;;;;;3.80;2.90;;;;;;;17.28;37.71;101864.03;5093330;28;20170;-62
2022/04/26 14:46:53;;;;;;;7.70;3.00;;;;;;;17.28;37.02;101860.50;5092527;28;20511;-63
2022/04/26 14:49:18;;;;;;;5.57;2.90;;;;;;;17.17;36.87;101869.53;5092158;28;20044;-62
2022/04/26 14:51:43;;;;;;;6.80;3.28;;;;;;;17.15;37.68;101866.09;5092731;28;20691;-62
2022/04/26 14:54:09;;;;;;;8.37;3.47;;;;;;;17.13;36.79;101866.22;5092414;28;20039;-62
2022/04/26 14:56:34;;;;;;;8.90;3.53;;;;;;;16.95;37.22;101870.53;5092828;28;20298;-62
2022/04/26 14:59:03;;;;;;;3.70;3.10;;;;;;;16.81;36.85;101869.88;5092555;28;20282;-63
2022/04/26 15:01:30;;;;;;;3.85;2.90;;;;;;;16.74;37.29;101876.75;5092460;28;20036;-62
2022/04/26 15:03:58;;;;;;;5.88;2.90;;;;;;;16.55;37.68;101877.47;5086190;28;20418;-62
2022/04/26 15:06:23;;;;;;;5.00;3.00;;;;;;;16.53;37.21;101875.94;5092351;28;20040;-62
2022/04/26 15:11:32;;;;;;;5.47;3.10;;;;;;;16.35;37.35;101873.81;5097207;28;20534;-62
2022/04/26 15:16:46;;;;;;;5.10;3.15;;;;;;;16.13;36.60;101877.47;5112291;28;20105;-63
2022/04/26 15:19:13;;;;;;;3.47;2.80;;;;;;;16.07;37.37;101878.84;5105237;28;20402;-62
2022/04/26 15:21:41;;;;;;;3.33;2.88;;;;;;;15.99;37.62;101875.94;5105828;28;20119;-62
2022/04/26 15:24:06;;;;;;;5.35;2.75;;;;;;;16.03;38.61;101873.84;5103321;28;20121;-62
2022/04/26 15:26:32;;;;;;;4.03;2.80;;;;;;;16.00;37.82;101876.78;5107363;28;20485;-62
2022/04/26 15:28:58;;;;;;;3.97;2.80;;;;;;;15.98;37.80;101879.59;5091457;28;20305;-62
2022/04/26 15:31:23;;;;;;;4.45;2.55;;;;;;;15.93;37.41;101872.94;5092003;28;20078;-62
2022/04/26 15:33:50;;;;;;;3.85;2.50;;;;;;;15.86;36.31;101872.59;5091306;28;20123;-62
2022/04/26 15:36:17;;;;;;;5.15;2.50;;;;;;;15.71;36.93;101872.00;5092037;28;20040;-62